sensor_id;sensor_type;location;lat;lon;timestamp;P1;P2;P0
80643;PMS5003;70010;60.224;24.712;2023-07-13T00:00:37;13;13;
80643;PMS5003;70010;60.224;24.712;2023-07-13T00:03:03;17;17;
80643;PMS5003;70010;60.224;24.712;2023-07-13T00:05:29;20;17;
80643;PMS5003;70010;60.224;24.712;2023-07-13T00:07:54;16;15;
80643;PMS5003;70010;60.224;24.712;2023-07-13T00:10:19;14;14;
80643;PMS5003;70010;60.224;24.712;2023-07-13T00:12:44;17;14;
80643;PMS5003;70010;60.224;24.712;2023-07-13T00:15:11;14;13;
80643;PMS5003;70010;60.224;24.712;2023-07-13T00:17:35;14;13;
80643;PMS5003;70010;60.224;24.712;2023-07-13T00:20:01;19;16;
80643;PMS5003;70010;60.224;24.712;2023-07-13T00:22:26;20;17;
80643;PMS5003;70010;60.224;24.712;2023-07-13T00:24:51;20;14;
80643;PMS5003;70010;60.224;24.712;2023-07-13T00:27:16;18;16;
80643;PMS5003;70010;60.224;24.712;2023-07-13T00:29:41;14;12;
80643;PMS5003;70010;60.224;24.712;2023-07-13T00:32:08;17;15;
80643;PMS5003;70010;60.224;24.712;2023-07-13T00:34:33;19;16;
80643;PMS5003;70010;60.224;24.712;2023-07-13T00:36:58;16;16;
80643;PMS5003;70010;60.224;24.712;2023-07-13T00:39:23;20;19;
80643;PMS5003;70010;60.224;24.712;2023-07-13T00:41:49;18;17;
80643;PMS5003;70010;60.224;24.712;2023-07-13T00:44:15;22;21;
80643;PMS5003;70010;60.224;24.712;2023-07-13T00:46:41;17;16;
80643;PMS5003;70010;60.224;24.712;2023-07-13T00:49:07;18;14;
80643;PMS5003;70010;60.224;24.712;2023-07-13T00:51:32;21;18;
80643;PMS5003;70010;60.224;24.712;2023-07-13T00:53:58;19;17;
80643;PMS5003;70010;60.224;24.712;2023-07-13T00:56:22;20;18;
80643;PMS5003;70010;60.224;24.712;2023-07-13T00:58:48;21;15;
80643;PMS5003;70010;60.224;24.712;2023-07-13T01:01:13;14;14;
80643;PMS5003;70010;60.224;24.712;2023-07-13T01:03:38;19;17;
80643;PMS5003;70010;60.224;24.712;2023-07-13T01:06:03;21;17;
80643;PMS5003;70010;60.224;24.712;2023-07-13T01:08:28;15;14;
80643;PMS5003;70010;60.224;24.712;2023-07-13T01:10:54;17;16;
80643;PMS5003;70010;60.224;24.712;2023-07-13T01:13:20;16;16;
80643;PMS5003;70010;60.224;24.712;2023-07-13T01:15:46;16;16;
80643;PMS5003;70010;60.224;24.712;2023-07-13T01:18:11;17;17;
80643;PMS5003;70010;60.224;24.712;2023-07-13T01:20:35;18;18;
80643;PMS5003;70010;60.224;24.712;2023-07-13T01:23:01;18;15;
80643;PMS5003;70010;60.224;24.712;2023-07-13T01:25:27;17;15;
80643;PMS5003;70010;60.224;24.712;2023-07-13T01:27:52;14;14;
80643;PMS5003;70010;60.224;24.712;2023-07-13T01:30:18;19;15;
80643;PMS5003;70010;60.224;24.712;2023-07-13T01:32:43;18;18;
80643;PMS5003;70010;60.224;24.712;2023-07-13T01:35:08;15;15;
80643;PMS5003;70010;60.224;24.712;2023-07-13T01:37:33;21;15;
80643;PMS5003;70010;60.224;24.712;2023-07-13T01:39:58;16;16;
80643;PMS5003;70010;60.224;24.712;2023-07-13T01:42:24;22;17;
80643;PMS5003;70010;60.224;24.712;2023-07-13T01:44:49;18;17;
80643;PMS5003;70010;60.224;24.712;2023-07-13T01:47:14;16;15;
80643;PMS5003;70010;60.224;24.712;2023-07-13T01:49:39;19;15;
80643;PMS5003;70010;60.224;24.712;2023-07-13T01:52:05;23;17;
80643;PMS5003;70010;60.224;24.712;2023-07-13T01:54:30;15;15;
80643;PMS5003;70010;60.224;24.712;2023-07-13T01:56:55;14;14;
80643;PMS5003;70010;60.224;24.712;2023-07-13T01:59:21;13;13;
80643;PMS5003;70010;60.224;24.712;2023-07-13T02:01:46;23;20;
80643;PMS5003;70010;60.224;24.712;2023-07-13T02:04:12;16;16;
80643;PMS5003;70010;60.224;24.712;2023-07-13T02:06:37;19;17;
80643;PMS5003;70010;60.224;24.712;2023-07-13T02:09:03;21;20;
80643;PMS5003;70010;60.224;24.712;2023-07-13T02:11:28;19;19;
80643;PMS5003;70010;60.224;24.712;2023-07-13T02:13:53;22;18;
80643;PMS5003;70010;60.224;24.712;2023-07-13T02:16:18;17;16;
80643;PMS5003;70010;60.224;24.712;2023-07-13T02:18:44;25;17;
80643;PMS5003;70010;60.224;24.712;2023-07-13T02:21:09;18;18;
80643;PMS5003;70010;60.224;24.712;2023-07-13T02:23:35;21;18;
80643;PMS5003;70010;60.224;24.712;2023-07-13T02:26:01;21;16;
80643;PMS5003;70010;60.224;24.712;2023-07-13T02:28:26;18;17;
80643;PMS5003;70010;60.224;24.712;2023-07-13T02:30:52;17;16;
80643;PMS5003;70010;60.224;24.712;2023-07-13T02:33:18;20;17;
80643;PMS5003;70010;60.224;24.712;2023-07-13T02:35:44;19;18;
80643;PMS5003;70010;60.224;24.712;2023-07-13T02:38:10;20;19;
80643;PMS5003;70010;60.224;24.712;2023-07-13T02:40:36;19;15;
80643;PMS5003;70010;60.224;24.712;2023-07-13T02:43:01;20;19;
80643;PMS5003;70010;60.224;24.712;2023-07-13T02:45:26;15;15;
80643;PMS5003;70010;60.224;24.712;2023-07-13T02:47:52;22;21;
80643;PMS5003;70010;60.224;24.712;2023-07-13T02:50:17;24;19;
80643;PMS5003;70010;60.224;24.712;2023-07-13T02:52:43;22;19;
80643;PMS5003;70010;60.224;24.712;2023-07-13T02:55:08;22;18;
80643;PMS5003;70010;60.224;24.712;2023-07-13T02:57:34;19;18;
80643;PMS5003;70010;60.224;24.712;2023-07-13T02:59:59;27;19;
80643;PMS5003;70010;60.224;24.712;2023-07-13T03:02:24;17;16;
80643;PMS5003;70010;60.224;24.712;2023-07-13T03:04:50;27;21;
80643;PMS5003;70010;60.224;24.712;2023-07-13T03:07:16;19;17;
80643;PMS5003;70010;60.224;24.712;2023-07-13T03:09:41;18;15;
80643;PMS5003;70010;60.224;24.712;2023-07-13T03:12:07;21;18;
80643;PMS5003;70010;60.224;24.712;2023-07-13T03:14:32;20;18;
80643;PMS5003;70010;60.224;24.712;2023-07-13T03:16:57;23;20;
80643;PMS5003;70010;60.224;24.712;2023-07-13T03:19:23;22;19;
80643;PMS5003;70010;60.224;24.712;2023-07-13T03:21:48;19;19;
80643;PMS5003;70010;60.224;24.712;2023-07-13T03:24:14;22;22;
80643;PMS5003;70010;60.224;24.712;2023-07-13T03:26:40;17;16;
80643;PMS5003;70010;60.224;24.712;2023-07-13T03:29:05;22;19;
80643;PMS5003;70010;60.224;24.712;2023-07-13T03:31:32;21;18;
80643;PMS5003;70010;60.224;24.712;2023-07-13T03:33:57;18;18;
80643;PMS5003;70010;60.224;24.712;2023-07-13T03:36:24;30;20;
80643;PMS5003;70010;60.224;24.712;2023-07-13T03:38:48;18;18;
80643;PMS5003;70010;60.224;24.712;2023-07-13T03:41:13;19;19;
80643;PMS5003;70010;60.224;24.712;2023-07-13T03:43:39;29;19;
80643;PMS5003;70010;60.224;24.712;2023-07-13T03:46:04;32;21;
80643;PMS5003;70010;60.224;24.712;2023-07-13T03:48:30;25;19;
80643;PMS5003;70010;60.224;24.712;2023-07-13T03:50:55;22;20;
80643;PMS5003;70010;60.224;24.712;2023-07-13T03:53:20;19;19;
80643;PMS5003;70010;60.224;24.712;2023-07-13T03:55:45;26;19;
80643;PMS5003;70010;60.224;24.712;2023-07-13T04:00:36;17;17;
80643;PMS5003;70010;60.224;24.712;2023-07-13T04:03:01;16;15;
80643;PMS5003;70010;60.224;24.712;2023-07-13T04:05:26;23;20;
80643;PMS5003;70010;60.224;24.712;2023-07-13T04:07:52;21;17;
80643;PMS5003;70010;60.224;24.712;2023-07-13T04:10:17;16;15;
80643;PMS5003;70010;60.224;24.712;2023-07-13T04:12:43;16;16;
80643;PMS5003;70010;60.224;24.712;2023-07-13T04:15:09;13;11;
80643;PMS5003;70010;60.224;24.712;2023-07-13T04:17:34;18;17;
80643;PMS5003;70010;60.224;24.712;2023-07-13T04:20:00;13;13;
80643;PMS5003;70010;60.224;24.712;2023-07-13T04:22:25;17;16;
80643;PMS5003;70010;60.224;24.712;2023-07-13T04:24:50;15;15;
80643;PMS5003;70010;60.224;24.712;2023-07-13T04:27:16;16;15;
80643;PMS5003;70010;60.224;24.712;2023-07-13T04:29:42;14;14;
80643;PMS5003;70010;60.224;24.712;2023-07-13T04:32:07;15;14;
80643;PMS5003;70010;60.224;24.712;2023-07-13T04:34:33;21;17;
80643;PMS5003;70010;60.224;24.712;2023-07-13T04:36:58;13;12;
80643;PMS5003;70010;60.224;24.712;2023-07-13T04:39:24;24;17;
80643;PMS5003;70010;60.224;24.712;2023-07-13T04:41:50;17;15;
80643;PMS5003;70010;60.224;24.712;2023-07-13T04:44:15;13;13;
80643;PMS5003;70010;60.224;24.712;2023-07-13T04:46:40;15;12;
80643;PMS5003;70010;60.224;24.712;2023-07-13T04:49:06;12;12;
80643;PMS5003;70010;60.224;24.712;2023-07-13T04:51:31;16;16;
80643;PMS5003;70010;60.224;24.712;2023-07-13T04:53:57;16;15;
80643;PMS5003;70010;60.224;24.712;2023-07-13T04:56:22;15;13;
80643;PMS5003;70010;60.224;24.712;2023-07-13T04:58:47;17;13;
80643;PMS5003;70010;60.224;24.712;2023-07-13T05:01:12;15;15;
80643;PMS5003;70010;60.224;24.712;2023-07-13T05:03:38;16;15;
80643;PMS5003;70010;60.224;24.712;2023-07-13T05:06:04;18;17;
80643;PMS5003;70010;60.224;24.712;2023-07-13T05:08:29;15;15;
80643;PMS5003;70010;60.224;24.712;2023-07-13T05:10:55;14;13;
80643;PMS5003;70010;60.224;24.712;2023-07-13T05:13:21;18;18;
80643;PMS5003;70010;60.224;24.712;2023-07-13T05:15:47;14;14;
80643;PMS5003;70010;60.224;24.712;2023-07-13T05:18:12;15;13;
80643;PMS5003;70010;60.224;24.712;2023-07-13T05:20:37;12;12;
80643;PMS5003;70010;60.224;24.712;2023-07-13T05:23:02;14;14;
80643;PMS5003;70010;60.224;24.712;2023-07-13T05:25:27;18;16;
80643;PMS5003;70010;60.224;24.712;2023-07-13T05:27:53;18;15;
80643;PMS5003;70010;60.224;24.712;2023-07-13T05:30:18;14;13;
80643;PMS5003;70010;60.224;24.712;2023-07-13T05:32:44;16;15;
80643;PMS5003;70010;60.224;24.712;2023-07-13T05:35:09;23;17;
80643;PMS5003;70010;60.224;24.712;2023-07-13T05:37:36;20;13;
80643;PMS5003;70010;60.224;24.712;2023-07-13T05:40:00;13;13;
80643;PMS5003;70010;60.224;24.712;2023-07-13T05:42:26;9;9;
80643;PMS5003;70010;60.224;24.712;2023-07-13T05:44:51;16;15;
80643;PMS5003;70010;60.224;24.712;2023-07-13T05:47:17;10;10;
80643;PMS5003;70010;60.224;24.712;2023-07-13T05:49:42;15;11;
80643;PMS5003;70010;60.224;24.712;2023-07-13T05:52:08;12;11;
80643;PMS5003;70010;60.224;24.712;2023-07-13T05:54:33;9;9;
80643;PMS5003;70010;60.224;24.712;2023-07-13T05:56:58;8;7;
80643;PMS5003;70010;60.224;24.712;2023-07-13T05:59:24;8;8;
80643;PMS5003;70010;60.224;24.712;2023-07-13T06:01:50;14;9;
80643;PMS5003;70010;60.224;24.712;2023-07-13T06:04:15;8;8;
80643;PMS5003;70010;60.224;24.712;2023-07-13T06:06:41;6;6;
80643;PMS5003;70010;60.224;24.712;2023-07-13T06:09:06;9;8;
80643;PMS5003;70010;60.224;24.712;2023-07-13T06:11:32;7;6;
80643;PMS5003;70010;60.224;24.712;2023-07-13T06:13:57;7;7;
80643;PMS5003;70010;60.224;24.712;2023-07-13T06:16:22;6;6;
80643;PMS5003;70010;60.224;24.712;2023-07-13T06:18:47;8;7;
80643;PMS5003;70010;60.224;24.712;2023-07-13T06:21:14;15;9;
80643;PMS5003;70010;60.224;24.712;2023-07-13T06:23:39;13;11;
80643;PMS5003;70010;60.224;24.712;2023-07-13T06:26:04;9;9;
80643;PMS5003;70010;60.224;24.712;2023-07-13T06:28:29;9;9;
80643;PMS5003;70010;60.224;24.712;2023-07-13T06:30:55;8;8;
80643;PMS5003;70010;60.224;24.712;2023-07-13T06:33:20;8;8;
80643;PMS5003;70010;60.224;24.712;2023-07-13T06:35:45;6;6;
80643;PMS5003;70010;60.224;24.712;2023-07-13T06:38:11;11;8;
80643;PMS5003;70010;60.224;24.712;2023-07-13T06:40:37;9;8;
80643;PMS5003;70010;60.224;24.712;2023-07-13T06:43:02;9;9;
80643;PMS5003;70010;60.224;24.712;2023-07-13T06:45:27;7;6;
80643;PMS5003;70010;60.224;24.712;2023-07-13T06:47:52;7;7;
80643;PMS5003;70010;60.224;24.712;2023-07-13T06:50:18;9;9;
80643;PMS5003;70010;60.224;24.712;2023-07-13T06:52:43;7;7;
80643;PMS5003;70010;60.224;24.712;2023-07-13T06:55:08;8;8;
80643;PMS5003;70010;60.224;24.712;2023-07-13T06:57:33;9;9;
80643;PMS5003;70010;60.224;24.712;2023-07-13T06:59:59;7;7;
80643;PMS5003;70010;60.224;24.712;2023-07-13T07:02:24;7;7;
80643;PMS5003;70010;60.224;24.712;2023-07-13T07:04:49;9;7;
80643;PMS5003;70010;60.224;24.712;2023-07-13T07:07:14;9;8;
80643;PMS5003;70010;60.224;24.712;2023-07-13T07:09:40;11;9;
80643;PMS5003;70010;60.224;24.712;2023-07-13T07:12:05;8;7;
80643;PMS5003;70010;60.224;24.712;2023-07-13T07:14:31;6;6;
80643;PMS5003;70010;60.224;24.712;2023-07-13T07:16:56;7;7;
80643;PMS5003;70010;60.224;24.712;2023-07-13T07:19:21;7;7;
80643;PMS5003;70010;60.224;24.712;2023-07-13T07:21:46;9;8;
80643;PMS5003;70010;60.224;24.712;2023-07-13T07:24:12;7;7;
80643;PMS5003;70010;60.224;24.712;2023-07-13T07:26:37;7;7;
80643;PMS5003;70010;60.224;24.712;2023-07-13T07:29:02;10;8;
80643;PMS5003;70010;60.224;24.712;2023-07-13T07:31:27;7;7;
80643;PMS5003;70010;60.224;24.712;2023-07-13T07:33:52;7;7;
80643;PMS5003;70010;60.224;24.712;2023-07-13T07:36:18;9;9;
80643;PMS5003;70010;60.224;24.712;2023-07-13T07:38:44;9;9;
80643;PMS5003;70010;60.224;24.712;2023-07-13T07:41:09;7;7;
80643;PMS5003;70010;60.224;24.712;2023-07-13T07:43:34;9;8;
80643;PMS5003;70010;60.224;24.712;2023-07-13T07:45:59;7;6;
80643;PMS5003;70010;60.224;24.712;2023-07-13T07:48:25;6;6;
80643;PMS5003;70010;60.224;24.712;2023-07-13T07:50:50;6;6;
80643;PMS5003;70010;60.224;24.712;2023-07-13T07:53:15;4;4;
80643;PMS5003;70010;60.224;24.712;2023-07-13T07:55:40;8;8;
80643;PMS5003;70010;60.224;24.712;2023-07-13T07:58:06;13;7;
80643;PMS5003;70010;60.224;24.712;2023-07-13T08:00:32;6;6;
80643;PMS5003;70010;60.224;24.712;2023-07-13T08:02:57;6;6;
80643;PMS5003;70010;60.224;24.712;2023-07-13T08:05:22;6;6;
80643;PMS5003;70010;60.224;24.712;2023-07-13T08:07:48;6;6;
80643;PMS5003;70010;60.224;24.712;2023-07-13T08:10:13;8;8;
80643;PMS5003;70010;60.224;24.712;2023-07-13T08:12:39;6;5;
80643;PMS5003;70010;60.224;24.712;2023-07-13T08:15:04;8;8;
80643;PMS5003;70010;60.224;24.712;2023-07-13T08:17:29;6;6;
80643;PMS5003;70010;60.224;24.712;2023-07-13T08:19:54;10;7;
80643;PMS5003;70010;60.224;24.712;2023-07-13T08:22:19;8;8;
80643;PMS5003;70010;60.224;24.712;2023-07-13T08:24:45;6;6;
80643;PMS5003;70010;60.224;24.712;2023-07-13T08:27:10;7;7;
80643;PMS5003;70010;60.224;24.712;2023-07-13T08:29:35;9;9;
80643;PMS5003;70010;60.224;24.712;2023-07-13T08:32:00;7;7;
80643;PMS5003;70010;60.224;24.712;2023-07-13T08:34:26;9;7;
80643;PMS5003;70010;60.224;24.712;2023-07-13T08:36:51;8;6;
80643;PMS5003;70010;60.224;24.712;2023-07-13T08:39:16;7;7;
80643;PMS5003;70010;60.224;24.712;2023-07-13T08:41:41;8;8;
80643;PMS5003;70010;60.224;24.712;2023-07-13T08:44:07;12;10;
80643;PMS5003;70010;60.224;24.712;2023-07-13T08:46:33;6;6;
80643;PMS5003;70010;60.224;24.712;2023-07-13T08:48:57;11;9;
80643;PMS5003;70010;60.224;24.712;2023-07-13T08:51:26;9;7;
80643;PMS5003;70010;60.224;24.712;2023-07-13T08:53:49;14;6;
80643;PMS5003;70010;60.224;24.712;2023-07-13T08:56:16;10;10;
80643;PMS5003;70010;60.224;24.712;2023-07-13T08:58:39;6;6;
80643;PMS5003;70010;60.224;24.712;2023-07-13T09:01:06;8;6;
80643;PMS5003;70010;60.224;24.712;2023-07-13T09:03:30;7;5;
80643;PMS5003;70010;60.224;24.712;2023-07-13T09:05:55;5;5;
80643;PMS5003;70010;60.224;24.712;2023-07-13T09:08:26;6;6;
80643;PMS5003;70010;60.224;24.712;2023-07-13T09:10:45;8;8;
80643;PMS5003;70010;60.224;24.712;2023-07-13T09:13:14;8;7;
80643;PMS5003;70010;60.224;24.712;2023-07-13T09:15:37;7;7;
80643;PMS5003;70010;60.224;24.712;2023-07-13T09:18:02;6;6;
80643;PMS5003;70010;60.224;24.712;2023-07-13T09:20:27;5;5;
80643;PMS5003;70010;60.224;24.712;2023-07-13T09:22:51;9;7;
80643;PMS5003;70010;60.224;24.712;2023-07-13T09:25:21;7;6;
80643;PMS5003;70010;60.224;24.712;2023-07-13T09:27:43;7;6;
80643;PMS5003;70010;60.224;24.712;2023-07-13T09:30:15;8;7;
80643;PMS5003;70010;60.224;24.712;2023-07-13T09:32:32;6;5;
80643;PMS5003;70010;60.224;24.712;2023-07-13T09:34:57;6;6;
80643;PMS5003;70010;60.224;24.712;2023-07-13T09:37:24;8;7;
80643;PMS5003;70010;60.224;24.712;2023-07-13T09:39:48;8;7;
80643;PMS5003;70010;60.224;24.712;2023-07-13T09:42:14;4;4;
80643;PMS5003;70010;60.224;24.712;2023-07-13T09:44:42;7;6;
80643;PMS5003;70010;60.224;24.712;2023-07-13T09:47:12;8;7;
80643;PMS5003;70010;60.224;24.712;2023-07-13T09:49:31;8;8;
80643;PMS5003;70010;60.224;24.712;2023-07-13T09:51:57;6;6;
80643;PMS5003;70010;60.224;24.712;2023-07-13T09:54:20;7;6;
80643;PMS5003;70010;60.224;24.712;2023-07-13T09:56:44;6;6;
80643;PMS5003;70010;60.224;24.712;2023-07-13T10:01:36;6;6;
80643;PMS5003;70010;60.224;24.712;2023-07-13T10:04:01;7;6;
80643;PMS5003;70010;60.224;24.712;2023-07-13T10:06:26;10;8;
80643;PMS5003;70010;60.224;24.712;2023-07-13T10:08:52;7;7;
80643;PMS5003;70010;60.224;24.712;2023-07-13T10:11:18;5;5;
80643;PMS5003;70010;60.224;24.712;2023-07-13T10:13:43;6;6;
80643;PMS5003;70010;60.224;24.712;2023-07-13T10:16:08;6;6;
80643;PMS5003;70010;60.224;24.712;2023-07-13T10:18:38;8;8;
80643;PMS5003;70010;60.224;24.712;2023-07-13T10:21:00;7;7;
80643;PMS5003;70010;60.224;24.712;2023-07-13T10:23:24;9;8;
80643;PMS5003;70010;60.224;24.712;2023-07-13T10:25:48;6;6;
80643;PMS5003;70010;60.224;24.712;2023-07-13T10:28:19;7;7;
80643;PMS5003;70010;60.224;24.712;2023-07-13T10:30:40;8;5;
80643;PMS5003;70010;60.224;24.712;2023-07-13T10:33:08;8;6;
80643;PMS5003;70010;60.224;24.712;2023-07-13T10:35:30;8;7;
80643;PMS5003;70010;60.224;24.712;2023-07-13T10:37:56;9;6;
80643;PMS5003;70010;60.224;24.712;2023-07-13T10:40:22;9;7;
80643;PMS5003;70010;60.224;24.712;2023-07-13T10:42:47;6;5;
80643;PMS5003;70010;60.224;24.712;2023-07-13T10:45:13;9;6;
80643;PMS5003;70010;60.224;24.712;2023-07-13T10:47:37;7;7;
80643;PMS5003;70010;60.224;24.712;2023-07-13T10:50:02;5;5;
80643;PMS5003;70010;60.224;24.712;2023-07-13T10:54:53;6;5;
80643;PMS5003;70010;60.224;24.712;2023-07-13T10:57:18;6;5;
80643;PMS5003;70010;60.224;24.712;2023-07-13T10:59:43;7;7;
80643;PMS5003;70010;60.224;24.712;2023-07-13T11:02:11;7;6;
80643;PMS5003;70010;60.224;24.712;2023-07-13T11:06:59;6;6;
80643;PMS5003;70010;60.224;24.712;2023-07-13T11:11:49;6;6;
80643;PMS5003;70010;60.224;24.712;2023-07-13T11:16:44;5;5;
80643;PMS5003;70010;60.224;24.712;2023-07-13T11:21:30;6;5;
80643;PMS5003;70010;60.224;24.712;2023-07-13T11:28:46;6;3;
80643;PMS5003;70010;60.224;24.712;2023-07-13T11:31:14;5;5;
80643;PMS5003;70010;60.224;24.712;2023-07-13T11:36:02;6;6;
80643;PMS5003;70010;60.224;24.712;2023-07-13T11:38:28;5;5;
80643;PMS5003;70010;60.224;24.712;2023-07-13T11:40:53;4;3;
80643;PMS5003;70010;60.224;24.712;2023-07-13T11:43:17;8;6;
80643;PMS5003;70010;60.224;24.712;2023-07-13T11:45:42;5;5;
80643;PMS5003;70010;60.224;24.712;2023-07-13T11:50:33;4;4;
80643;PMS5003;70010;60.224;24.712;2023-07-13T11:52:58;6;5;
80643;PMS5003;70010;60.224;24.712;2023-07-13T11:55:23;5;5;
80643;PMS5003;70010;60.224;24.712;2023-07-13T11:57:50;5;5;
80643;PMS5003;70010;60.224;24.712;2023-07-13T12:00:15;6;4;
80643;PMS5003;70010;60.224;24.712;2023-07-13T12:02:41;5;5;
80643;PMS5003;70010;60.224;24.712;2023-07-13T12:05:05;5;4;
80643;PMS5003;70010;60.224;24.712;2023-07-13T12:07:30;4;3;
80643;PMS5003;70010;60.224;24.712;2023-07-13T12:09:59;4;4;
80643;PMS5003;70010;60.224;24.712;2023-07-13T12:12:21;4;4;
80643;PMS5003;70010;60.224;24.712;2023-07-13T12:14:45;4;4;
80643;PMS5003;70010;60.224;24.712;2023-07-13T12:17:11;5;4;
80643;PMS5003;70010;60.224;24.712;2023-07-13T12:19:36;3;3;
80643;PMS5003;70010;60.224;24.712;2023-07-13T12:22:01;5;5;
80643;PMS5003;70010;60.224;24.712;2023-07-13T12:24:26;7;5;
80643;PMS5003;70010;60.224;24.712;2023-07-13T12:26:52;3;3;
80643;PMS5003;70010;60.224;24.712;2023-07-13T12:29:17;4;4;
80643;PMS5003;70010;60.224;24.712;2023-07-13T12:31:42;3;3;
80643;PMS5003;70010;60.224;24.712;2023-07-13T12:34:08;6;6;
80643;PMS5003;70010;60.224;24.712;2023-07-13T12:36:33;6;6;
80643;PMS5003;70010;60.224;24.712;2023-07-13T12:38:59;5;5;
80643;PMS5003;70010;60.224;24.712;2023-07-13T12:41:23;3;3;
80643;PMS5003;70010;60.224;24.712;2023-07-13T12:43:48;6;6;
80643;PMS5003;70010;60.224;24.712;2023-07-13T12:46:17;4;4;
80643;PMS5003;70010;60.224;24.712;2023-07-13T12:48:39;5;5;
80643;PMS5003;70010;60.224;24.712;2023-07-13T12:51:04;4;4;
80643;PMS5003;70010;60.224;24.712;2023-07-13T12:53:30;6;5;
80643;PMS5003;70010;60.224;24.712;2023-07-13T12:55:56;6;5;
80643;PMS5003;70010;60.224;24.712;2023-07-13T12:58:21;6;6;
80643;PMS5003;70010;60.224;24.712;2023-07-13T13:00:50;5;5;
80643;PMS5003;70010;60.224;24.712;2023-07-13T13:03:15;5;5;
80643;PMS5003;70010;60.224;24.712;2023-07-13T13:05:37;4;4;
80643;PMS5003;70010;60.224;24.712;2023-07-13T13:08:02;3;3;
80643;PMS5003;70010;60.224;24.712;2023-07-13T13:10:27;3;3;
80643;PMS5003;70010;60.224;24.712;2023-07-13T13:12:52;5;5;
80643;PMS5003;70010;60.224;24.712;2023-07-13T13:15:18;8;5;
80643;PMS5003;70010;60.224;24.712;2023-07-13T13:17:43;7;6;
80643;PMS5003;70010;60.224;24.712;2023-07-13T13:22:33;5;5;
80643;PMS5003;70010;60.224;24.712;2023-07-13T13:24:59;7;4;
80643;PMS5003;70010;60.224;24.712;2023-07-13T13:27:24;5;4;
80643;PMS5003;70010;60.224;24.712;2023-07-13T13:29:49;6;6;
80643;PMS5003;70010;60.224;24.712;2023-07-13T13:32:14;6;6;
80643;PMS5003;70010;60.224;24.712;2023-07-13T13:34:40;5;5;
80643;PMS5003;70010;60.224;24.712;2023-07-13T13:37:05;6;6;
80643;PMS5003;70010;60.224;24.712;2023-07-13T13:39:32;2;2;
80643;PMS5003;70010;60.224;24.712;2023-07-13T13:41:55;3;3;
80643;PMS5003;70010;60.224;24.712;2023-07-13T13:44:21;6;6;
80643;PMS5003;70010;60.224;24.712;2023-07-13T13:46:47;7;6;
80643;PMS5003;70010;60.224;24.712;2023-07-13T13:49:12;5;5;
80643;PMS5003;70010;60.224;24.712;2023-07-13T13:51:37;5;4;
80643;PMS5003;70010;60.224;24.712;2023-07-13T13:54:02;4;4;
80643;PMS5003;70010;60.224;24.712;2023-07-13T13:56:27;3;3;
80643;PMS5003;70010;60.224;24.712;2023-07-13T13:58:52;4;4;
80643;PMS5003;70010;60.224;24.712;2023-07-13T14:01:19;4;4;
80643;PMS5003;70010;60.224;24.712;2023-07-13T14:03:43;5;5;
80643;PMS5003;70010;60.224;24.712;2023-07-13T14:06:09;4;4;
80643;PMS5003;70010;60.224;24.712;2023-07-13T14:08:33;7;5;
80643;PMS5003;70010;60.224;24.712;2023-07-13T14:10:59;4;4;
80643;PMS5003;70010;60.224;24.712;2023-07-13T14:13:25;4;4;
80643;PMS5003;70010;60.224;24.712;2023-07-13T14:15:49;5;5;
80643;PMS5003;70010;60.224;24.712;2023-07-13T14:18:14;5;5;
80643;PMS5003;70010;60.224;24.712;2023-07-13T14:20:40;5;5;
80643;PMS5003;70010;60.224;24.712;2023-07-13T14:23:05;5;5;
80643;PMS5003;70010;60.224;24.712;2023-07-13T14:25:30;5;4;
80643;PMS5003;70010;60.224;24.712;2023-07-13T14:27:57;5;5;
80643;PMS5003;70010;60.224;24.712;2023-07-13T14:30:21;6;6;
80643;PMS5003;70010;60.224;24.712;2023-07-13T14:32:46;7;6;
80643;PMS5003;70010;60.224;24.712;2023-07-13T14:35:11;5;5;
80643;PMS5003;70010;60.224;24.712;2023-07-13T14:37:36;5;5;
80643;PMS5003;70010;60.224;24.712;2023-07-13T14:40:02;4;4;
80643;PMS5003;70010;60.224;24.712;2023-07-13T14:42:27;7;7;
80643;PMS5003;70010;60.224;24.712;2023-07-13T14:44:52;4;4;
80643;PMS5003;70010;60.224;24.712;2023-07-13T14:47:17;5;5;
80643;PMS5003;70010;60.224;24.712;2023-07-13T14:49:43;6;5;
80643;PMS5003;70010;60.224;24.712;2023-07-13T14:52:11;5;5;
80643;PMS5003;70010;60.224;24.712;2023-07-13T14:54:33;4;4;
80643;PMS5003;70010;60.224;24.712;2023-07-13T14:56:58;7;5;
80643;PMS5003;70010;60.224;24.712;2023-07-13T14:59:23;5;5;
80643;PMS5003;70010;60.224;24.712;2023-07-13T15:01:49;6;5;
80643;PMS5003;70010;60.224;24.712;2023-07-13T15:04:14;6;6;
80643;PMS5003;70010;60.224;24.712;2023-07-13T15:09:04;5;5;
80643;PMS5003;70010;60.224;24.712;2023-07-13T15:11:30;6;5;
80643;PMS5003;70010;60.224;24.712;2023-07-13T15:13:55;8;6;
80643;PMS5003;70010;60.224;24.712;2023-07-13T15:16:22;5;5;
80643;PMS5003;70010;60.224;24.712;2023-07-13T15:18:46;6;5;
80643;PMS5003;70010;60.224;24.712;2023-07-13T15:21:13;9;8;
80643;PMS5003;70010;60.224;24.712;2023-07-13T15:23:36;4;4;
80643;PMS5003;70010;60.224;24.712;2023-07-13T15:26:02;6;6;
80643;PMS5003;70010;60.224;24.712;2023-07-13T15:28:27;7;7;
80643;PMS5003;70010;60.224;24.712;2023-07-13T15:30:52;4;4;
80643;PMS5003;70010;60.224;24.712;2023-07-13T15:33:19;7;7;
80643;PMS5003;70010;60.224;24.712;2023-07-13T15:35:43;5;5;
80643;PMS5003;70010;60.224;24.712;2023-07-13T15:38:13;8;6;
80643;PMS5003;70010;60.224;24.712;2023-07-13T15:40:34;8;7;
80643;PMS5003;70010;60.224;24.712;2023-07-13T15:43:00;7;7;
80643;PMS5003;70010;60.224;24.712;2023-07-13T15:45:24;8;5;
80643;PMS5003;70010;60.224;24.712;2023-07-13T15:47:50;7;7;
80643;PMS5003;70010;60.224;24.712;2023-07-13T15:50:15;8;8;
80643;PMS5003;70010;60.224;24.712;2023-07-13T15:52:41;6;5;
80643;PMS5003;70010;60.224;24.712;2023-07-13T15:55:07;8;8;
80643;PMS5003;70010;60.224;24.712;2023-07-13T15:57:31;10;9;
80643;PMS5003;70010;60.224;24.712;2023-07-13T15:59:56;8;7;
80643;PMS5003;70010;60.224;24.712;2023-07-13T16:02:22;9;9;
80643;PMS5003;70010;60.224;24.712;2023-07-13T16:04:47;8;7;
80643;PMS5003;70010;60.224;24.712;2023-07-13T16:07:13;6;6;
80643;PMS5003;70010;60.224;24.712;2023-07-13T16:09:38;15;9;
80643;PMS5003;70010;60.224;24.712;2023-07-13T16:12:06;9;6;
80643;PMS5003;70010;60.224;24.712;2023-07-13T16:14:29;8;8;
80643;PMS5003;70010;60.224;24.712;2023-07-13T16:16:54;9;9;
80643;PMS5003;70010;60.224;24.712;2023-07-13T16:19:19;9;9;
80643;PMS5003;70010;60.224;24.712;2023-07-13T16:21:46;9;9;
80643;PMS5003;70010;60.224;24.712;2023-07-13T16:24:14;7;7;
80643;PMS5003;70010;60.224;24.712;2023-07-13T16:26:36;5;5;
80643;PMS5003;70010;60.224;24.712;2023-07-13T16:29:00;8;6;
80643;PMS5003;70010;60.224;24.712;2023-07-13T16:31:26;9;8;
80643;PMS5003;70010;60.224;24.712;2023-07-13T16:33:51;7;7;
80643;PMS5003;70010;60.224;24.712;2023-07-13T16:36:16;7;6;
80643;PMS5003;70010;60.224;24.712;2023-07-13T16:38:41;7;5;